sensor_id;sensor_type;location;lat;lon;timestamp;temperature;humidity
70336;SHT31;57756;47.408;18.940;2023-04-29T00:00:45;11.87;73.34
70336;SHT31;57756;47.408;18.940;2023-04-29T00:03:11;11.85;74.40
70336;SHT31;57756;47.408;18.940;2023-04-29T00:05:36;11.89;74.93
70336;SHT31;57756;47.408;18.940;2023-04-29T00:08:02;11.89;73.41
70336;SHT31;57756;47.408;18.940;2023-04-29T00:10:28;11.89;72.27
70336;SHT31;57756;47.408;18.940;2023-04-29T00:12:53;11.85;73.47
70336;SHT31;57756;47.408;18.940;2023-04-29T00:15:19;11.83;73.00
70336;SHT31;57756;47.408;18.940;2023-04-29T00:17:44;11.83;74.54
70336;SHT31;57756;47.408;18.940;2023-04-29T00:20:10;11.81;74.36
70336;SHT31;57756;47.408;18.940;2023-04-29T00:22:36;11.78;73.69
70336;SHT31;57756;47.408;18.940;2023-04-29T00:25:03;11.78;74.59
70336;SHT31;57756;47.408;18.940;2023-04-29T00:27:28;11.82;72.22
70336;SHT31;57756;47.408;18.940;2023-04-29T00:29:54;11.83;72.32
70336;SHT31;57756;47.408;18.940;2023-04-29T00:32:19;11.85;71.61
70336;SHT31;57756;47.408;18.940;2023-04-29T00:34:46;11.83;71.99
70336;SHT31;57756;47.408;18.940;2023-04-29T00:37:12;11.86;71.71
70336;SHT31;57756;47.408;18.940;2023-04-29T00:39:38;11.85;71.82
70336;SHT31;57756;47.408;18.940;2023-04-29T00:42:03;11.81;73.73
70336;SHT31;57756;47.408;18.940;2023-04-29T00:44:29;11.81;72.97
70336;SHT31;57756;47.408;18.940;2023-04-29T00:46:54;11.78;72.56
70336;SHT31;57756;47.408;18.940;2023-04-29T00:49:20;11.81;72.31
70336;SHT31;57756;47.408;18.940;2023-04-29T00:51:46;11.79;75.09
70336;SHT31;57756;47.408;18.940;2023-04-29T00:54:12;11.79;72.01
70336;SHT31;57756;47.408;18.940;2023-04-29T00:56:38;11.75;72.18
70336;SHT31;57756;47.408;18.940;2023-04-29T00:59:08;11.76;74.00
70336;SHT31;57756;47.408;18.940;2023-04-29T01:01:35;11.73;73.53
70336;SHT31;57756;47.408;18.940;2023-04-29T01:04:01;11.72;76.58
70336;SHT31;57756;47.408;18.940;2023-04-29T01:12:05;11.73;73.35
70336;SHT31;57756;47.408;18.940;2023-04-29T01:14:32;11.75;73.48
70336;SHT31;57756;47.408;18.940;2023-04-29T01:17:04;11.72;73.24
70336;SHT31;57756;47.408;18.940;2023-04-29T01:22:02;11.73;73.32
70336;SHT31;57756;47.408;18.940;2023-04-29T01:24:27;11.68;73.59
70336;SHT31;57756;47.408;18.940;2023-04-29T01:27:10;11.72;73.09
70336;SHT31;57756;47.408;18.940;2023-04-29T01:40:24;11.72;73.99
70336;SHT31;57756;47.408;18.940;2023-04-29T01:43:01;11.72;72.26
70336;SHT31;57756;47.408;18.940;2023-04-29T01:45:28;11.73;73.31
70336;SHT31;57756;47.408;18.940;2023-04-29T01:47:56;11.75;72.23
70336;SHT31;57756;47.408;18.940;2023-04-29T01:50:22;11.69;71.87
70336;SHT31;57756;47.408;18.940;2023-04-29T01:52:47;11.66;72.47
70336;SHT31;57756;47.408;18.940;2023-04-29T01:55:13;11.63;72.08
70336;SHT31;57756;47.408;18.940;2023-04-29T01:57:38;11.69;71.26
70336;SHT31;57756;47.408;18.940;2023-04-29T02:00:04;11.75;70.98
70336;SHT31;57756;47.408;18.940;2023-04-29T02:02:30;11.71;71.06
70336;SHT31;57756;47.408;18.940;2023-04-29T02:04:55;11.69;71.16
70336;SHT31;57756;47.408;18.940;2023-04-29T02:07:21;11.71;71.26
70336;SHT31;57756;47.408;18.940;2023-04-29T02:09:46;11.71;70.91
70336;SHT31;57756;47.408;18.940;2023-04-29T02:12:12;11.65;71.23
70336;SHT31;57756;47.408;18.940;2023-04-29T02:14:37;11.63;72.40
70336;SHT31;57756;47.408;18.940;2023-04-29T02:17:03;11.59;72.93
70336;SHT31;57756;47.408;18.940;2023-04-29T02:19:29;11.58;70.89
70336;SHT31;57756;47.408;18.940;2023-04-29T02:21:55;11.57;72.24
70336;SHT31;57756;47.408;18.940;2023-04-29T02:24:20;11.55;72.22
70336;SHT31;57756;47.408;18.940;2023-04-29T02:26:46;11.54;71.94
70336;SHT31;57756;47.408;18.940;2023-04-29T02:29:11;11.57;71.50
70336;SHT31;57756;47.408;18.940;2023-04-29T02:31:37;11.50;72.73
70336;SHT31;57756;47.408;18.940;2023-04-29T02:34:02;11.50;72.17
70336;SHT31;57756;47.408;18.940;2023-04-29T02:36:29;11.50;73.26
70336;SHT31;57756;47.408;18.940;2023-04-29T02:38:54;11.45;72.69
70336;SHT31;57756;47.408;18.940;2023-04-29T02:41:21;11.45;73.14
70336;SHT31;57756;47.408;18.940;2023-04-29T02:43:46;11.44;72.47
70336;SHT31;57756;47.408;18.940;2023-04-29T02:46:13;11.42;73.39
70336;SHT31;57756;47.408;18.940;2023-04-29T02:48:40;11.41;72.73
70336;SHT31;57756;47.408;18.940;2023-04-29T02:51:06;11.44;72.21
70336;SHT31;57756;47.408;18.940;2023-04-29T02:53:32;11.39;73.14
70336;SHT31;57756;47.408;18.940;2023-04-29T02:55:57;11.38;73.24
70336;SHT31;57756;47.408;18.940;2023-04-29T02:58:23;11.35;72.87
70336;SHT31;57756;47.408;18.940;2023-04-29T03:00:48;11.32;72.57
70336;SHT31;57756;47.408;18.940;2023-04-29T03:03:14;11.32;72.98
70336;SHT31;57756;47.408;18.940;2023-04-29T03:05:39;11.31;72.89
70336;SHT31;57756;47.408;18.940;2023-04-29T03:08:05;11.27;73.02
70336;SHT31;57756;47.408;18.940;2023-04-29T03:10:30;11.28;73.57
70336;SHT31;57756;47.408;18.940;2023-04-29T03:12:56;11.25;72.94
70336;SHT31;57756;47.408;18.940;2023-04-29T03:15:21;11.24;73.32
70336;SHT31;57756;47.408;18.940;2023-04-29T03:17:47;11.20;73.76
70336;SHT31;57756;47.408;18.940;2023-04-29T03:20:12;11.18;73.17
70336;SHT31;57756;47.408;18.940;2023-04-29T03:22:38;11.25;72.86
70336;SHT31;57756;47.408;18.940;2023-04-29T03:25:04;11.24;72.94
70336;SHT31;57756;47.408;18.940;2023-04-29T03:27:30;11.21;72.78
70336;SHT31;57756;47.408;18.940;2023-04-29T03:29:55;11.16;73.95
70336;SHT31;57756;47.408;18.940;2023-04-29T03:32:21;11.13;75.54
70336;SHT31;57756;47.408;18.940;2023-04-29T03:34:46;11.17;73.24
70336;SHT31;57756;47.408;18.940;2023-04-29T03:37:13;11.16;73.01
70336;SHT31;57756;47.408;18.940;2023-04-29T03:39:40;11.16;73.95
70336;SHT31;57756;47.408;18.940;2023-04-29T03:42:06;11.17;74.85
70336;SHT31;57756;47.408;18.940;2023-04-29T03:44:31;11.11;77.53
70336;SHT31;57756;47.408;18.940;2023-04-29T03:46:57;11.13;73.82
70336;SHT31;57756;47.408;18.940;2023-04-29T03:49:22;11.11;73.58
70336;SHT31;57756;47.408;18.940;2023-04-29T03:51:48;11.11;74.50
70336;SHT31;57756;47.408;18.940;2023-04-29T03:54:13;11.11;76.35
70336;SHT31;57756;47.408;18.940;2023-04-29T03:56:39;11.11;76.33
70336;SHT31;57756;47.408;18.940;2023-04-29T03:59:05;11.10;76.27
70336;SHT31;57756;47.408;18.940;2023-04-29T04:01:31;11.08;75.89
70336;SHT31;57756;47.408;18.940;2023-04-29T04:03:56;11.08;75.80
70336;SHT31;57756;47.408;18.940;2023-04-29T04:06:22;11.10;77.06
70336;SHT31;57756;47.408;18.940;2023-04-29T04:08:47;11.11;77.27
70336;SHT31;57756;47.408;18.940;2023-04-29T04:11:13;11.11;77.47
70336;SHT31;57756;47.408;18.940;2023-04-29T04:13:40;11.11;74.93
70336;SHT31;57756;47.408;18.940;2023-04-29T04:16:10;11.14;74.32
70336;SHT31;57756;47.408;18.940;2023-04-29T04:18:36;11.17;76.57
70336;SHT31;57756;47.408;18.940;2023-04-29T04:21:09;11.17;73.85
70336;SHT31;57756;47.408;18.940;2023-04-29T04:23:35;11.21;73.75
70336;SHT31;57756;47.408;18.940;2023-04-29T04:26:02;11.21;74.04
70336;SHT31;57756;47.408;18.940;2023-04-29T04:28:27;11.20;74.39
70336;SHT31;57756;47.408;18.940;2023-04-29T04:30:53;11.23;74.05
70336;SHT31;57756;47.408;18.940;2023-04-29T04:33:18;11.21;73.44
70336;SHT31;57756;47.408;18.940;2023-04-29T04:35:44;11.28;72.93
70336;SHT31;57756;47.408;18.940;2023-04-29T04:38:09;11.30;72.72
70336;SHT31;57756;47.408;18.940;2023-04-29T04:40:43;11.24;72.36
70336;SHT31;57756;47.408;18.940;2023-04-29T04:43:08;11.24;72.71
70336;SHT31;57756;47.408;18.940;2023-04-29T04:45:34;11.25;75.08
70336;SHT31;57756;47.408;18.940;2023-04-29T04:48:00;11.24;73.58
70336;SHT31;57756;47.408;18.940;2023-04-29T04:50:27;11.27;74.16
70336;SHT31;57756;47.408;18.940;2023-04-29T04:52:56;11.31;73.31
70336;SHT31;57756;47.408;18.940;2023-04-29T04:55:22;11.32;72.99
70336;SHT31;57756;47.408;18.940;2023-04-29T04:57:47;11.36;74.84
70336;SHT31;57756;47.408;18.940;2023-04-29T05:00:13;11.42;73.81
70336;SHT31;57756;47.408;18.940;2023-04-29T05:02:38;11.50;74.09
70336;SHT31;57756;47.408;18.940;2023-04-29T05:05:04;11.57;72.73
70336;SHT31;57756;47.408;18.940;2023-04-29T05:07:30;11.58;71.77
70336;SHT31;57756;47.408;18.940;2023-04-29T05:09:55;11.59;71.90
70336;SHT31;57756;47.408;18.940;2023-04-29T05:12:21;11.63;71.77
70336;SHT31;57756;47.408;18.940;2023-04-29T05:14:46;11.62;73.48
70336;SHT31;57756;47.408;18.940;2023-04-29T05:17:12;11.65;72.75
70336;SHT31;57756;47.408;18.940;2023-04-29T05:19:37;11.57;73.13
70336;SHT31;57756;47.408;18.940;2023-04-29T05:22:03;11.62;72.14
70336;SHT31;57756;47.408;18.940;2023-04-29T05:24:28;11.57;72.44
70336;SHT31;57756;47.408;18.940;2023-04-29T05:26:54;11.57;71.32
70336;SHT31;57756;47.408;18.940;2023-04-29T05:29:20;11.52;72.52
70336;SHT31;57756;47.408;18.940;2023-04-29T05:31:45;11.50;72.42
70336;SHT31;57756;47.408;18.940;2023-04-29T05:34:11;11.55;74.32
70336;SHT31;57756;47.408;18.940;2023-04-29T05:36:37;11.62;71.82
70336;SHT31;57756;47.408;18.940;2023-04-29T05:39:02;11.65;71.94
70336;SHT31;57756;47.408;18.940;2023-04-29T05:41:28;11.72;71.38
70336;SHT31;57756;47.408;18.940;2023-04-29T05:43:54;11.76;72.52
70336;SHT31;57756;47.408;18.940;2023-04-29T05:46:19;11.92;70.95
70336;SHT31;57756;47.408;18.940;2023-04-29T05:48:47;11.92;70.52
70336;SHT31;57756;47.408;18.940;2023-04-29T05:51:12;11.99;71.27
70336;SHT31;57756;47.408;18.940;2023-04-29T05:53:38;12.04;69.59
70336;SHT31;57756;47.408;18.940;2023-04-29T05:56:05;12.12;69.80
70336;SHT31;57756;47.408;18.940;2023-04-29T05:58:33;12.14;70.30
70336;SHT31;57756;47.408;18.940;2023-04-29T06:00:59;12.23;70.99
70336;SHT31;57756;47.408;18.940;2023-04-29T06:03:24;12.27;70.90
70336;SHT31;57756;47.408;18.940;2023-04-29T06:05:50;12.36;71.66
70336;SHT31;57756;47.408;18.940;2023-04-29T06:08:15;12.44;68.88
70336;SHT31;57756;47.408;18.940;2023-04-29T06:10:41;12.49;69.48
70336;SHT31;57756;47.408;18.940;2023-04-29T06:13:06;12.49;68.39
70336;SHT31;57756;47.408;18.940;2023-04-29T06:15:32;12.54;68.37
70336;SHT31;57756;47.408;18.940;2023-04-29T06:17:57;12.68;69.60
70336;SHT31;57756;47.408;18.940;2023-04-29T06:20:23;12.71;68.04
70336;SHT31;57756;47.408;18.940;2023-04-29T06:22:48;12.76;67.50
70336;SHT31;57756;47.408;18.940;2023-04-29T06:25:14;12.72;68.09
70336;SHT31;57756;47.408;18.940;2023-04-29T06:27:39;12.78;67.63
70336;SHT31;57756;47.408;18.940;2023-04-29T06:30:05;12.69;67.42
70336;SHT31;57756;47.408;18.940;2023-04-29T06:32:31;12.68;68.77
70336;SHT31;57756;47.408;18.940;2023-04-29T06:34:57;12.64;68.38
70336;SHT31;57756;47.408;18.940;2023-04-29T06:37:22;12.74;69.02
70336;SHT31;57756;47.408;18.940;2023-04-29T06:39:48;12.71;68.92
70336;SHT31;57756;47.408;18.940;2023-04-29T06:42:13;12.82;69.28
70336;SHT31;57756;47.408;18.940;2023-04-29T06:44:39;12.86;67.54
70336;SHT31;57756;47.408;18.940;2023-04-29T06:47:05;12.85;68.53
70336;SHT31;57756;47.408;18.940;2023-04-29T06:49:30;12.96;67.64
70336;SHT31;57756;47.408;18.940;2023-04-29T06:51:55;13.06;68.09
70336;SHT31;57756;47.408;18.940;2023-04-29T06:54:21;13.10;67.86
70336;SHT31;57756;47.408;18.940;2023-04-29T06:56:46;13.14;69.33
70336;SHT31;57756;47.408;18.940;2023-04-29T06:59:12;13.14;69.41
70336;SHT31;57756;47.408;18.940;2023-04-29T07:01:39;13.19;67.93
70336;SHT31;57756;47.408;18.940;2023-04-29T07:04:05;13.26;68.12
70336;SHT31;57756;47.408;18.940;2023-04-29T07:06:31;13.20;67.77
70336;SHT31;57756;47.408;18.940;2023-04-29T07:08:56;13.16;67.67
70336;SHT31;57756;47.408;18.940;2023-04-29T07:11:22;13.32;68.67
70336;SHT31;57756;47.408;18.940;2023-04-29T07:13:51;13.42;67.13
70336;SHT31;57756;47.408;18.940;2023-04-29T07:16:17;13.30;67.32
70336;SHT31;57756;47.408;18.940;2023-04-29T07:18:44;13.37;67.46
70336;SHT31;57756;47.408;18.940;2023-04-29T07:21:10;13.39;66.90
70336;SHT31;57756;47.408;18.940;2023-04-29T07:23:35;13.28;66.74
70336;SHT31;57756;47.408;18.940;2023-04-29T07:26:15;13.39;67.37
70336;SHT31;57756;47.408;18.940;2023-04-29T07:28:41;13.53;67.10
70336;SHT31;57756;47.408;18.940;2023-04-29T07:31:07;13.75;66.71
70336;SHT31;57756;47.408;18.940;2023-04-29T07:33:33;13.97;65.63
70336;SHT31;57756;47.408;18.940;2023-04-29T07:35:59;14.20;65.70
70336;SHT31;57756;47.408;18.940;2023-04-29T07:38:25;14.46;65.63
70336;SHT31;57756;47.408;18.940;2023-04-29T07:40:50;14.47;64.31
70336;SHT31;57756;47.408;18.940;2023-04-29T07:43:16;14.74;64.17
70336;SHT31;57756;47.408;18.940;2023-04-29T07:45:41;15.09;63.73
70336;SHT31;57756;47.408;18.940;2023-04-29T07:48:07;15.77;61.85
70336;SHT31;57756;47.408;18.940;2023-04-29T07:50:35;15.74;60.90
70336;SHT31;57756;47.408;18.940;2023-04-29T07:53:04;16.59;60.33
70336;SHT31;57756;47.408;18.940;2023-04-29T07:55:30;16.77;59.23
70336;SHT31;57756;47.408;18.940;2023-04-29T07:57:56;17.42;58.16
70336;SHT31;57756;47.408;18.940;2023-04-29T08:00:22;17.49;57.77
70336;SHT31;57756;47.408;18.940;2023-04-29T08:02:55;17.00;57.11
70336;SHT31;57756;47.408;18.940;2023-04-29T08:05:21;16.94;56.97
70336;SHT31;57756;47.408;18.940;2023-04-29T08:07:47;16.66;57.93
70336;SHT31;57756;47.408;18.940;2023-04-29T08:10:13;16.73;58.27
70336;SHT31;57756;47.408;18.940;2023-04-29T08:12:39;16.74;59.22
70336;SHT31;57756;47.408;18.940;2023-04-29T08:15:05;16.76;58.26
70336;SHT31;57756;47.408;18.940;2023-04-29T08:17:31;16.80;56.66
70336;SHT31;57756;47.408;18.940;2023-04-29T08:19:56;16.63;56.59
70336;SHT31;57756;47.408;18.940;2023-04-29T08:22:22;16.72;56.51
70336;SHT31;57756;47.408;18.940;2023-04-29T08:24:47;16.53;55.85
70336;SHT31;57756;47.408;18.940;2023-04-29T08:27:13;16.66;55.44
70336;SHT31;57756;47.408;18.940;2023-04-29T08:29:40;16.66;56.75
70336;SHT31;57756;47.408;18.940;2023-04-29T08:32:06;16.79;57.40
70336;SHT31;57756;47.408;18.940;2023-04-29T08:34:31;16.55;56.66
70336;SHT31;57756;47.408;18.940;2023-04-29T08:36:58;16.83;56.55
70336;SHT31;57756;47.408;18.940;2023-04-29T08:39:23;16.83;55.39
70336;SHT31;57756;47.408;18.940;2023-04-29T08:41:50;17.34;56.18
70336;SHT31;57756;47.408;18.940;2023-04-29T08:44:19;17.85;53.91
70336;SHT31;57756;47.408;18.940;2023-04-29T08:46:46;17.99;54.14
70336;SHT31;57756;47.408;18.940;2023-04-29T08:49:12;18.92;53.33
70336;SHT31;57756;47.408;18.940;2023-04-29T08:51:38;18.86;52.67
70336;SHT31;57756;47.408;18.940;2023-04-29T08:54:03;18.82;51.56
70336;SHT31;57756;47.408;18.940;2023-04-29T08:56:29;18.81;51.62
70336;SHT31;57756;47.408;18.940;2023-04-29T08:58:56;18.69;52.93
70336;SHT31;57756;47.408;18.940;2023-04-29T09:01:26;18.69;54.04
70336;SHT31;57756;47.408;18.940;2023-04-29T09:06:26;18.45;54.20
70336;SHT31;57756;47.408;18.940;2023-04-29T09:08:52;18.37;52.99
70336;SHT31;57756;47.408;18.940;2023-04-29T09:11:18;18.35;53.86
70336;SHT31;57756;47.408;18.940;2023-04-29T09:13:44;18.16;52.08
70336;SHT31;57756;47.408;18.940;2023-04-29T09:16:13;18.07;53.72
70336;SHT31;57756;47.408;18.940;2023-04-29T09:18:49;17.85;53.40
70336;SHT31;57756;47.408;18.940;2023-04-29T09:21:28;17.75;53.88
70336;SHT31;57756;47.408;18.940;2023-04-29T09:23:58;17.96;52.99
70336;SHT31;57756;47.408;18.940;2023-04-29T09:26:25;17.86;52.58
70336;SHT31;57756;47.408;18.940;2023-04-29T09:29:10;18.31;53.69
70336;SHT31;57756;47.408;18.940;2023-04-29T09:31:40;18.58;52.48
70336;SHT31;57756;47.408;18.940;2023-04-29T09:34:06;18.55;51.77
70336;SHT31;57756;47.408;18.940;2023-04-29T09:39:19;19.26;49.01
70336;SHT31;57756;47.408;18.940;2023-04-29T09:44:27;19.23;49.33
70336;SHT31;57756;47.408;18.940;2023-04-29T09:47:02;19.19;49.86
70336;SHT31;57756;47.408;18.940;2023-04-29T09:49:33;19.17;49.03
70336;SHT31;57756;47.408;18.940;2023-04-29T09:52:05;19.53;50.16
70336;SHT31;57756;47.408;18.940;2023-04-29T09:54:33;19.48;48.38
70336;SHT31;57756;47.408;18.940;2023-04-29T09:57:01;19.55;49.39
70336;SHT31;57756;47.408;18.940;2023-04-29T09:59:29;19.93;49.38
70336;SHT31;57756;47.408;18.940;2023-04-29T10:01:56;19.77;47.27
70336;SHT31;57756;47.408;18.940;2023-04-29T10:04:24;19.61;48.46
70336;SHT31;57756;47.408;18.940;2023-04-29T10:06:51;19.62;50.14
70336;SHT31;57756;47.408;18.940;2023-04-29T10:09:18;19.79;48.16
70336;SHT31;57756;47.408;18.940;2023-04-29T10:11:44;19.72;50.19
70336;SHT31;57756;47.408;18.940;2023-04-29T10:14:16;19.61;47.74
70336;SHT31;57756;47.408;18.940;2023-04-29T10:19:17;19.35;50.14
70336;SHT31;57756;47.408;18.940;2023-04-29T10:21:43;19.40;48.73
70336;SHT31;57756;47.408;18.940;2023-04-29T10:24:10;19.35;49.33
70336;SHT31;57756;47.408;18.940;2023-04-29T10:26:38;19.24;48.93
70336;SHT31;57756;47.408;18.940;2023-04-29T10:29:04;19.41;50.04
70336;SHT31;57756;47.408;18.940;2023-04-29T10:31:30;19.17;50.04
70336;SHT31;57756;47.408;18.940;2023-04-29T10:33:57;19.34;49.34
70336;SHT31;57756;47.408;18.940;2023-04-29T10:36:27;19.00;50.41
70336;SHT31;57756;47.408;18.940;2023-04-29T10:38:56;18.91;49.21
70336;SHT31;57756;47.408;18.940;2023-04-29T10:41:26;19.26;50.89
70336;SHT31;57756;47.408;18.940;2023-04-29T10:43:53;19.51;49.27
70336;SHT31;57756;47.408;18.940;2023-04-29T10:46:22;19.75;50.76
70336;SHT31;57756;47.408;18.940;2023-04-29T10:48:55;19.68;49.14
70336;SHT31;57756;47.408;18.940;2023-04-29T10:53:58;20.16;49.73
70336;SHT31;57756;47.408;18.940;2023-04-29T10:56:54;20.48;49.73
70336;SHT31;57756;47.408;18.940;2023-04-29T11:02:08;19.51;48.50
70336;SHT31;57756;47.408;18.940;2023-04-29T11:07:44;20.53;48.04
70336;SHT31;57756;47.408;18.940;2023-04-29T11:10:11;21.30;47.37
70336;SHT31;57756;47.408;18.940;2023-04-29T11:12:37;22.36;47.08
70336;SHT31;57756;47.408;18.940;2023-04-29T11:15:03;22.79;46.56
70336;SHT31;57756;47.408;18.940;2023-04-29T11:17:38;22.64;45.62
70336;SHT31;57756;47.408;18.940;2023-04-29T11:20:10;23.18;45.11
70336;SHT31;57756;47.408;18.940;2023-04-29T11:22:37;23.69;44.71
70336;SHT31;57756;47.408;18.940;2023-04-29T11:25:05;24.22;44.64
70336;SHT31;57756;47.408;18.940;2023-04-29T11:27:31;23.51;43.67
70336;SHT31;57756;47.408;18.940;2023-04-29T11:29:58;23.08;45.66
70336;SHT31;57756;47.408;18.940;2023-04-29T11:32:28;23.44;43.88
70336;SHT31;57756;47.408;18.940;2023-04-29T11:34:54;23.82;43.00
70336;SHT31;57756;47.408;18.940;2023-04-29T11:37:25;24.16;43.91
70336;SHT31;57756;47.408;18.940;2023-04-29T11:39:58;23.82;42.68
70336;SHT31;57756;47.408;18.940;2023-04-29T11:42:24;23.08;44.22
70336;SHT31;57756;47.408;18.940;2023-04-29T11:44:53;22.81;46.14
70336;SHT31;57756;47.408;18.940;2023-04-29T11:47:27;22.84;45.90
70336;SHT31;57756;47.408;18.940;2023-04-29T11:52:29;22.81;45.20
70336;SHT31;57756;47.408;18.940;2023-04-29T11:54:56;22.57;46.07
70336;SHT31;57756;47.408;18.940;2023-04-29T11:57:22;22.38;47.87
70336;SHT31;57756;47.408;18.940;2023-04-29T11:59:48;21.53;46.83
70336;SHT31;57756;47.408;18.940;2023-04-29T12:02:13;21.76;46.94
70336;SHT31;57756;47.408;18.940;2023-04-29T12:04:45;21.71;47.75
70336;SHT31;57756;47.408;18.940;2023-04-29T12:07:14;21.30;47.42
70336;SHT31;57756;47.408;18.940;2023-04-29T12:09:44;21.39;47.02
70336;SHT31;57756;47.408;18.940;2023-04-29T12:12:11;21.85;47.29
70336;SHT31;57756;47.408;18.940;2023-04-29T12:14:37;22.09;47.25
70336;SHT31;57756;47.408;18.940;2023-04-29T12:17:03;22.16;46.81
70336;SHT31;57756;47.408;18.940;2023-04-29T12:19:29;22.38;48.38
70336;SHT31;57756;47.408;18.940;2023-04-29T12:21:58;22.14;45.55
70336;SHT31;57756;47.408;18.940;2023-04-29T12:24:23;22.28;45.79
70336;SHT31;57756;47.408;18.940;2023-04-29T12:26:49;21.77;46.97
70336;SHT31;57756;47.408;18.940;2023-04-29T12:29:15;21.87;46.56
70336;SHT31;57756;47.408;18.940;2023-04-29T12:31:40;21.98;47.19
70336;SHT31;57756;47.408;18.940;2023-04-29T12:34:06;22.19;46.46
70336;SHT31;57756;47.408;18.940;2023-04-29T12:36:33;21.67;47.33
70336;SHT31;57756;47.408;18.940;2023-04-29T12:38:59;22.25;48.23
70336;SHT31;57756;47.408;18.940;2023-04-29T12:41:39;22.52;47.68
70336;SHT31;57756;47.408;18.940;2023-04-29T12:44:05;22.43;46.92
70336;SHT31;57756;47.408;18.940;2023-04-29T12:46:36;22.09;46.52
70336;SHT31;57756;47.408;18.940;2023-04-29T12:49:02;21.94;47.61
70336;SHT31;57756;47.408;18.940;2023-04-29T12:51:32;21.95;47.67
70336;SHT31;57756;47.408;18.940;2023-04-29T12:54:02;21.94;46.46
70336;SHT31;57756;47.408;18.940;2023-04-29T12:56:30;21.68;47.59
70336;SHT31;57756;47.408;18.940;2023-04-29T12:59:03;21.43;48.70
70336;SHT31;57756;47.408;18.940;2023-04-29T13:01:28;21.39;50.10
70336;SHT31;57756;47.408;18.940;2023-04-29T13:03:54;21.32;48.05
70336;SHT31;57756;47.408;18.940;2023-04-29T13:06:19;21.30;48.16
70336;SHT31;57756;47.408;18.940;2023-04-29T13:08:45;21.46;48.08
70336;SHT31;57756;47.408;18.940;2023-04-29T13:11:10;21.10;49.18
70336;SHT31;57756;47.408;18.940;2023-04-29T13:13:37;20.91;49.37
70336;SHT31;57756;47.408;18.940;2023-04-29T13:16:03;20.99;49.48
70336;SHT31;57756;47.408;18.940;2023-04-29T13:18:28;21.25;49.45
70336;SHT31;57756;47.408;18.940;2023-04-29T13:20:54;21.68;50.65
70336;SHT31;57756;47.408;18.940;2023-04-29T13:23:19;21.64;50.56
70336;SHT31;57756;47.408;18.940;2023-04-29T13:25:45;21.51;50.82
70336;SHT31;57756;47.408;18.940;2023-04-29T13:28:12;21.50;49.70
70336;SHT31;57756;47.408;18.940;2023-04-29T13:30:38;21.28;50.41
70336;SHT31;57756;47.408;18.940;2023-04-29T13:33:03;21.13;49.48
70336;SHT31;57756;47.408;18.940;2023-04-29T13:35:29;21.06;48.90
70336;SHT31;57756;47.408;18.940;2023-04-29T13:37:54;21.01;50.53
70336;SHT31;57756;47.408;18.940;2023-04-29T13:40:20;21.22;51.48
70336;SHT31;57756;47.408;18.940;2023-04-29T13:42:46;21.10;49.88
70336;SHT31;57756;47.408;18.940;2023-04-29T13:45:11;21.46;48.83
70336;SHT31;57756;47.408;18.940;2023-04-29T13:47:37;21.40;49.42
70336;SHT31;57756;47.408;18.940;2023-04-29T13:50:03;21.12;51.26
70336;SHT31;57756;47.408;18.940;2023-04-29T13:52:29;21.06;50.44
70336;SHT31;57756;47.408;18.940;2023-04-29T13:54:55;21.13;49.92
70336;SHT31;57756;47.408;18.940;2023-04-29T13:57:20;20.87;51.64
70336;SHT31;57756;47.408;18.940;2023-04-29T13:59:46;20.50;50.36
70336;SHT31;57756;47.408;18.940;2023-04-29T14:02:12;20.27;51.38
70336;SHT31;57756;47.408;18.940;2023-04-29T14:04:38;20.22;51.74
70336;SHT31;57756;47.408;18.940;2023-04-29T14:07:04;20.19;51.82
70336;SHT31;57756;47.408;18.940;2023-04-29T14:09:30;20.43;51.65
70336;SHT31;57756;47.408;18.940;2023-04-29T14:11:55;20.30;50.29
70336;SHT31;57756;47.408;18.940;2023-04-29T14:14:21;20.34;50.34
70336;SHT31;57756;47.408;18.940;2023-04-29T14:16:46;20.48;50.93
70336;SHT31;57756;47.408;18.940;2023-04-29T14:19:12;20.58;51.72
70336;SHT31;57756;47.408;18.940;2023-04-29T14:21:37;20.60;51.88
70336;SHT31;57756;47.408;18.940;2023-04-29T14:24:03;20.65;51.60
70336;SHT31;57756;47.408;18.940;2023-04-29T14:26:29;20.47;51.37
70336;SHT31;57756;47.408;18.940;2023-04-29T14:28:55;20.51;51.19
70336;SHT31;57756;47.408;18.940;2023-04-29T14:31:26;20.57;51.13
70336;SHT31;57756;47.408;18.940;2023-04-29T14:33:57;20.65;51.23
70336;SHT31;57756;47.408;18.940;2023-04-29T14:36:23;20.57;52.61
70336;SHT31;57756;47.408;18.940;2023-04-29T14:38:49;20.61;51.79
70336;SHT31;57756;47.408;18.940;2023-04-29T14:41:15;20.40;51.03
70336;SHT31;57756;47.408;18.940;2023-04-29T14:43:40;20.41;50.95
70336;SHT31;57756;47.408;18.940;2023-04-29T14:46:07;20.44;51.73
70336;SHT31;57756;47.408;18.940;2023-04-29T14:48:33;20.30;50.11
70336;SHT31;57756;47.408;18.940;2023-04-29T14:50:59;20.30;51.12
70336;SHT31;57756;47.408;18.940;2023-04-29T14:53:24;20.45;50.83
70336;SHT31;57756;47.408;18.940;2023-04-29T14:55:50;20.55;51.92
70336;SHT31;57756;47.408;18.940;2023-04-29T14:58:15;20.45;51.34
70336;SHT31;57756;47.408;18.940;2023-04-29T15:00:41;20.54;51.17
70336;SHT31;57756;47.408;18.940;2023-04-29T15:03:07;20.51;51.21
70336;SHT31;57756;47.408;18.940;2023-04-29T15:05:32;20.53;51.87
70336;SHT31;57756;47.408;18.940;2023-04-29T15:07:58;20.53;52.00
70336;SHT31;57756;47.408;18.940;2023-04-29T15:10:26;20.47;51.84
70336;SHT31;57756;47.408;18.940;2023-04-29T15:12:51;20.54;51.92
70336;SHT31;57756;47.408;18.940;2023-04-29T15:15:17;20.72;51.15
70336;SHT31;57756;47.408;18.940;2023-04-29T15:17:43;20.58;50.41
70336;SHT31;57756;47.408;18.940;2023-04-29T15:20:09;20.64;50.79
70336;SHT31;57756;47.408;18.940;2023-04-29T15:22:34;20.53;50.80
70336;SHT31;57756;47.408;18.940;2023-04-29T15:25:00;20.50;52.16
70336;SHT31;57756;47.408;18.940;2023-04-29T15:27:26;20.64;50.37
70336;SHT31;57756;47.408;18.940;2023-04-29T15:29:52;20.48;52.51
70336;SHT31;57756;47.408;18.940;2023-04-29T15:32:21;20.48;52.21
70336;SHT31;57756;47.408;18.940;2023-04-29T15:34:46;20.41;52.90
70336;SHT31;57756;47.408;18.940;2023-04-29T15:37:12;20.48;51.23
70336;SHT31;57756;47.408;18.940;2023-04-29T15:39:38;20.50;51.11
70336;SHT31;57756;47.408;18.940;2023-04-29T15:42:04;20.60;51.32
70336;SHT31;57756;47.408;18.940;2023-04-29T15:44:31;20.58;51.45
70336;SHT31;57756;47.408;18.940;2023-04-29T15:46:56;20.50;51.36
70336;SHT31;57756;47.408;18.940;2023-04-29T15:49:22;20.23;51.19
70336;SHT31;57756;47.408;18.940;2023-04-29T15:51:48;20.19;52.81